createdAt,value
2019-04-14T00:00:27.534Z,3.8
2019-04-14T00:03:26.404Z,3.8
2019-04-14T00:06:26.866Z,3.8
2019-04-14T00:09:27.635Z,3.8
2019-04-14T00:12:27.489Z,3.8
2019-04-14T00:15:55.131Z,3.8
2019-04-14T00:18:27.483Z,3.8
2019-04-14T00:21:26.427Z,3.8
2019-04-14T00:24:27.418Z,3.8
2019-04-14T00:27:26.414Z,3.8
2019-04-14T00:30:27.551Z,3.8
2019-04-14T00:33:26.229Z,3.8
2019-04-14T00:36:26.438Z,3.8
2019-04-14T00:39:27.611Z,3.8
2019-04-14T00:42:26.209Z,3.8
2019-04-14T00:48:27.728Z,3.8
2019-04-14T00:51:26.823Z,3.8
2019-04-14T00:54:26.282Z,3.8
2019-04-14T00:57:27.204Z,3.8
2019-04-14T01:00:26.178Z,3.9
2019-04-14T01:03:26.830Z,3.9
2019-04-14T01:06:27.594Z,3.9
2019-04-14T01:09:26.482Z,3.9
2019-04-14T01:12:26.103Z,3.9
2019-04-14T01:15:27.049Z,3.9
2019-04-14T01:18:26.126Z,3.9
2019-04-14T01:21:26.672Z,3.9
2019-04-14T01:24:27.442Z,3.9
2019-04-14T01:27:28.055Z,3.9
2019-04-14T01:30:26.518Z,3.9
2019-04-14T01:33:27.582Z,3.9
2019-04-14T01:36:26.142Z,3.9
2019-04-14T01:39:26.846Z,3.9
2019-04-14T01:42:27.126Z,3.9
2019-04-14T01:45:26.058Z,3.9
2019-04-14T01:48:26.076Z,3.9
2019-04-14T01:51:26.991Z,3.9
2019-04-14T01:54:26.136Z,3.9
2019-04-14T01:57:26.605Z,3.9
2019-04-14T02:00:27.238Z,3.9
2019-04-14T02:03:28.299Z,3.9
2019-04-14T02:06:26.863Z,3.9
2019-04-14T02:09:27.556Z,3.9
2019-04-14T02:12:26.200Z,3.9
2019-04-14T02:15:26.873Z,3.9
2019-04-14T02:18:27.610Z,3.9
2019-04-14T02:21:26.357Z,3.9
2019-04-14T02:24:26.732Z,3.9
2019-04-14T02:27:27.605Z,3.9
2019-04-14T03:57:32.938Z,3.9
2019-04-14T04:00:31.837Z,3.9
2019-04-14T04:03:26.397Z,3.9
2019-04-14T04:06:27.344Z,3.9
2019-04-14T04:09:26.137Z,3.9
2019-04-14T04:12:27.506Z,3.9
2019-04-14T04:15:26.304Z,3.9
2019-04-14T04:18:26.926Z,3.9
2019-04-14T04:21:27.518Z,3.9
2019-04-14T04:24:35.385Z,3.9
2019-04-14T04:27:26.861Z,3.9
2019-04-14T04:30:27.689Z,3.9
2019-04-14T04:33:26.703Z,3.9
2019-04-14T04:36:27.259Z,3.9
2019-04-14T04:39:26.107Z,3.9
2019-04-14T04:42:26.885Z,3.9
2019-04-14T04:45:26.252Z,3.9
2019-04-14T04:48:26.710Z,3.9
2019-04-14T04:51:27.168Z,3.9
2019-04-14T04:54:26.047Z,3.9
2019-04-14T04:57:26.681Z,3.9
2019-04-14T05:00:26.925Z,3.9
2019-04-14T05:03:26.170Z,3.9
2019-04-14T05:06:26.952Z,3.9
2019-04-14T05:09:27.771Z,3.9
2019-04-14T05:12:26.586Z,3.9
2019-04-14T05:15:27.331Z,3.9
2019-04-14T05:18:29.422Z,3.9
2019-04-14T05:21:26.128Z,3.9
2019-04-14T05:24:27.247Z,3.9
2019-04-14T05:27:27.775Z,3.9
2019-04-14T05:30:26.733Z,3.9
2019-04-14T05:33:27.529Z,3.9
2019-04-14T05:36:26.333Z,3.9
2019-04-14T05:39:26.843Z,3.9
2019-04-14T05:42:30.449Z,3.9
2019-04-14T05:45:26.619Z,3.9
2019-04-14T05:48:27.854Z,3.9
2019-04-14T05:51:26.800Z,3.9
2019-04-14T05:54:27.585Z,3.9
2019-04-14T05:57:26.600Z,3.9
2019-04-14T06:00:26.617Z,3.9
2019-04-14T06:03:26.196Z,3.9
2019-04-14T06:06:26.061Z,3.9
2019-04-14T06:09:25.957Z,3.9
2019-04-14T06:12:25.990Z,3.9
2019-04-14T06:15:26.080Z,3.9
2019-04-14T06:18:26.240Z,3.9
2019-04-14T06:21:26.171Z,3.9
2019-04-14T06:24:26.009Z,3.9
2019-04-14T06:27:25.976Z,3.9
2019-04-14T06:30:26.084Z,3.9
2019-04-14T06:33:26.070Z,3.9
2019-04-14T06:36:26.140Z,3.9
2019-04-14T06:39:26.363Z,3.9
2019-04-14T06:42:26.201Z,3.9
2019-04-14T06:45:25.927Z,3.9
2019-04-14T06:48:25.987Z,3.9
2019-04-14T06:51:26.034Z,3.9
2019-04-14T06:54:26.117Z,3.9
2019-04-14T06:57:26.086Z,3.9
2019-04-14T07:00:25.937Z,3.9
2019-04-14T07:03:25.929Z,3.9
2019-04-14T07:06:26.002Z,3.9
2019-04-14T07:09:26.056Z,3.9
2019-04-14T07:12:26.320Z,3.9
2019-04-14T07:15:26.137Z,3.9
2019-04-14T07:18:26.182Z,3.9
2019-04-14T07:21:25.909Z,3.9
2019-04-14T07:24:26.105Z,3.9
2019-04-14T07:27:26.105Z,3.9
2019-04-14T07:30:26.098Z,3.9
2019-04-14T07:33:26.206Z,3.9
2019-04-14T07:36:26.105Z,3.9
2019-04-14T07:39:25.980Z,3.9
2019-04-14T07:42:25.970Z,3.9
2019-04-14T07:45:26.050Z,3.9
2019-04-14T07:48:26.354Z,3.9
2019-04-14T07:51:26.156Z,3.9
2019-04-14T07:54:26.145Z,3.9
2019-04-14T07:57:25.893Z,3.9
2019-04-14T08:00:26.041Z,4.3
2019-04-14T08:03:26.041Z,4.3
2019-04-14T08:06:26.030Z,4.3
2019-04-14T08:09:26.132Z,4.3
2019-04-14T08:12:26.286Z,4.3
2019-04-14T08:15:25.979Z,4.3
2019-04-14T08:18:26.082Z,4.3
2019-04-14T08:21:26.310Z,4.3
2019-04-14T08:24:26.179Z,4.3
2019-04-14T08:27:26.185Z,4.3
2019-04-14T08:30:26.271Z,4.3
2019-04-14T08:33:26.215Z,4.3
2019-04-14T08:36:25.856Z,4.3
2019-04-14T08:39:25.939Z,4.3
2019-04-14T08:42:26.038Z,4.3
2019-04-14T08:45:26.266Z,4.3
2019-04-14T08:48:26.086Z,4.3
2019-04-14T08:51:25.933Z,4.3
2019-04-14T08:54:25.947Z,4.3
2019-04-14T08:57:26.122Z,4.3
2019-04-14T09:00:26.029Z,4.5
2019-04-14T09:03:26.072Z,4.5
2019-04-14T09:06:26.209Z,4.5
2019-04-14T09:09:25.892Z,4.5
2019-04-14T09:12:25.907Z,4.5
2019-04-14T09:15:26.042Z,4.5
2019-04-14T09:18:26.066Z,4.5
2019-04-14T09:21:26.157Z,4.5
2019-04-14T09:24:26.229Z,4.5
2019-04-14T09:27:25.987Z,4.5
2019-04-14T09:30:26.188Z,4.5
2019-04-14T09:33:26.043Z,4.5
2019-04-14T09:36:26.065Z,4.5
2019-04-14T09:39:26.091Z,4.5
2019-04-14T09:42:26.081Z,4.5
2019-04-14T09:45:26.235Z,4.5
2019-04-14T09:48:25.867Z,4.5
2019-04-14T09:51:25.901Z,4.5
2019-04-14T09:54:26.107Z,4.5
2019-04-14T09:57:26.029Z,4.5
2019-04-14T10:00:26.521Z,4.8
2019-04-14T10:03:26.143Z,4.8
2019-04-14T10:06:26.243Z,4.8
2019-04-14T10:09:26.485Z,4.8
2019-04-14T10:12:26.033Z,4.8
2019-04-14T10:15:26.000Z,4.8
2019-04-14T10:18:26.064Z,4.8
2019-04-14T10:21:26.079Z,4.8
2019-04-14T10:24:25.943Z,4.8
2019-04-14T10:27:25.923Z,4.8
2019-04-14T10:30:25.919Z,4.8
2019-04-14T10:33:25.930Z,4.8
2019-04-14T10:36:26.264Z,4.8
2019-04-14T10:39:26.034Z,4.8
2019-04-14T10:42:25.876Z,4.8
2019-04-14T10:45:26.027Z,4.8
2019-04-14T10:48:26.091Z,4.8
2019-04-14T10:51:34.566Z,4.8
2019-04-14T10:54:26.311Z,4.8
2019-04-14T10:57:26.115Z,4.8
2019-04-14T11:00:25.984Z,5
2019-04-14T11:03:25.942Z,5
2019-04-14T11:06:25.900Z,5
2019-04-14T11:09:26.031Z,5
2019-04-14T11:12:26.056Z,5
2019-04-14T11:15:26.096Z,5
2019-04-14T11:18:25.831Z,5
2019-04-14T11:21:26.040Z,5
2019-04-14T11:24:26.167Z,5
2019-04-14T11:27:26.056Z,5
2019-04-14T11:30:25.979Z,5
2019-04-14T11:33:26.142Z,5
2019-04-14T11:36:25.883Z,5
2019-04-14T11:39:26.161Z,5
2019-04-14T11:42:26.063Z,5
2019-04-14T11:45:26.145Z,5
2019-04-14T11:48:26.081Z,5
2019-04-14T11:51:26.062Z,5
2019-04-14T11:54:26.221Z,5
2019-04-14T11:57:25.864Z,5
2019-04-14T12:00:25.916Z,5.1
2019-04-14T12:03:25.956Z,5.1
2019-04-14T12:06:26.043Z,5.1
2019-04-14T12:09:26.128Z,5.1
2019-04-14T12:12:26.040Z,5.1
2019-04-14T12:15:25.829Z,5.1
2019-04-14T12:18:26.326Z,5.1
2019-04-14T12:21:25.915Z,5.1
2019-04-14T12:24:26.071Z,5.1
2019-04-14T12:27:26.086Z,5.1
2019-04-14T12:30:27.189Z,5.1
2019-04-14T12:33:25.808Z,5.1
2019-04-14T12:36:25.954Z,5.1
2019-04-14T12:39:26.387Z,5.1
2019-04-14T12:42:25.967Z,5.1
2019-04-14T12:45:26.316Z,5.1
2019-04-14T12:48:26.044Z,5.1
2019-04-14T12:51:25.860Z,5.1
2019-04-14T12:54:25.931Z,5.1
2019-04-14T12:57:25.884Z,5.1
2019-04-14T13:00:26.691Z,5.3
2019-04-14T13:03:26.071Z,5.3
2019-04-14T13:06:25.983Z,5.3
2019-04-14T13:09:25.996Z,5.3
2019-04-14T13:12:25.940Z,5.3
2019-04-14T13:15:25.896Z,5.3
2019-04-14T13:18:25.885Z,5.3
2019-04-14T13:21:25.948Z,5.3
2019-04-14T13:24:26.156Z,5.3
2019-04-14T14:02:44.983Z,6.6
2019-04-14T14:05:45.085Z,6.6
2019-04-14T14:08:46.234Z,6.6
2019-04-14T14:11:45.172Z,6.6
2019-04-14T14:14:45.169Z,6.6
2019-04-14T14:17:45.207Z,6.6
2019-04-14T14:20:45.395Z,6.6
2019-04-14T14:23:45.086Z,6.6
2019-04-14T14:26:45.234Z,6.6
2019-04-14T14:29:45.282Z,6.6
2019-04-14T14:32:45.247Z,6.6
2019-04-14T14:35:45.280Z,6.6
2019-04-14T14:38:45.033Z,6.6
2019-04-14T14:41:45.041Z,6.6
2019-04-14T14:44:45.251Z,6.6
2019-04-14T14:47:45.139Z,6.6
2019-04-14T14:50:45.332Z,6.6
2019-04-14T14:53:45.214Z,6.6
2019-04-14T14:56:44.999Z,6.6
2019-04-14T14:59:45.445Z,6.6
2019-04-14T15:02:45.175Z,6.1
2019-04-14T15:05:45.258Z,6.1
2019-04-14T15:08:45.173Z,6.1
2019-04-14T15:11:45.396Z,6.1
2019-04-14T15:14:45.279Z,6.1
2019-04-14T15:17:45.057Z,6.1
2019-04-14T15:20:45.079Z,6.1
2019-04-14T15:23:45.210Z,6.1
2019-04-14T15:26:45.130Z,6.1
2019-04-14T15:29:45.170Z,6.1
2019-04-14T15:32:45.531Z,6.1
2019-04-14T15:35:45.126Z,6.1
2019-04-14T15:38:45.229Z,6.1
2019-04-14T15:41:45.093Z,6.1
2019-04-14T15:44:45.187Z,6.1
2019-04-14T15:47:45.203Z,6.1
2019-04-14T15:50:45.333Z,6.1
2019-04-14T15:53:45.137Z,6.1
2019-04-14T15:56:45.061Z,6.1
2019-04-14T15:59:45.150Z,6.1
2019-04-14T16:02:45.107Z,5.8
2019-04-14T16:05:45.183Z,5.8
2019-04-14T16:08:45.216Z,5.8
2019-04-14T16:11:45.059Z,5.8
2019-04-14T16:14:45.510Z,5.8
2019-04-14T16:17:45.177Z,5.8
2019-04-14T16:20:45.150Z,5.8
2019-04-14T16:23:51.332Z,5.8
2019-04-14T16:26:45.357Z,5.8
2019-04-14T16:29:45.015Z,5.8
2019-04-14T16:32:44.936Z,5.8
2019-04-14T16:35:45.141Z,5.8
2019-04-14T16:38:45.099Z,5.8
2019-04-14T16:41:45.152Z,5.8
2019-04-14T16:44:45.279Z,5.8
2019-04-14T16:47:45.119Z,5.8
2019-04-14T16:50:45.083Z,5.8
2019-04-14T16:53:45.248Z,5.8
2019-04-14T18:02:30.305Z,5.8
2019-04-14T18:05:29.928Z,5.8
2019-04-14T18:08:30.267Z,5.8
2019-04-14T18:11:30.358Z,5.8
2019-04-14T18:14:30.131Z,5.8
2019-04-14T18:17:30.145Z,5.8
2019-04-14T18:20:30.357Z,5.8
2019-04-14T18:23:29.901Z,5.8
2019-04-14T18:26:29.788Z,5.8
2019-04-14T18:29:29.709Z,5.8
2019-04-14T18:32:30.002Z,5.8
2019-04-14T18:35:29.890Z,5.8
2019-04-14T18:38:29.899Z,5.8
2019-04-14T18:41:29.718Z,5.8
2019-04-14T18:44:29.890Z,5.8
2019-04-14T18:47:29.866Z,5.8
2019-04-14T18:50:29.840Z,5.8
2019-04-14T18:53:29.827Z,5.8
2019-04-14T18:56:29.736Z,5.8
2019-04-14T18:59:29.696Z,5.8
2019-04-14T19:02:29.937Z,5.4
2019-04-14T19:05:29.977Z,5.4
2019-04-14T19:08:29.968Z,5.4
2019-04-14T19:11:29.995Z,5.4
2019-04-14T19:14:30.075Z,5.4
2019-04-14T19:17:32.023Z,5.4
2019-04-14T19:20:30.215Z,5.4
2019-04-14T19:23:29.972Z,5.4
2019-04-14T19:26:29.985Z,5.4
2019-04-14T19:29:29.931Z,5.4
2019-04-14T19:32:30.109Z,5.4
2019-04-14T19:35:29.721Z,5.4
2019-04-14T19:38:29.838Z,5.4
2019-04-14T19:41:29.840Z,5.4
2019-04-14T19:44:29.845Z,5.4
2019-04-14T19:47:29.671Z,5.4
2019-04-14T19:50:29.891Z,5.4
2019-04-14T19:53:29.912Z,5.4
2019-04-14T19:56:29.712Z,5.4
2019-04-14T19:59:29.829Z,5.4
2019-04-14T20:02:29.834Z,5.3
2019-04-14T20:05:29.755Z,5.3
2019-04-14T20:08:29.887Z,5.3
2019-04-14T20:11:30.458Z,5.3
2019-04-14T20:14:30.044Z,5.3
2019-04-14T20:17:29.676Z,5.3
2019-04-14T20:20:29.719Z,5.3
2019-04-14T20:23:29.742Z,5.3
2019-04-14T20:26:30.016Z,5.3
2019-04-14T20:29:29.661Z,5.3
2019-04-14T20:32:29.893Z,5.3
2019-04-14T20:35:29.870Z,5.3
2019-04-14T20:38:29.788Z,5.3
2019-04-14T20:41:29.621Z,5.3
2019-04-14T20:44:29.853Z,5.3
2019-04-14T20:47:29.918Z,5.3
2019-04-14T20:50:29.978Z,5.3
2019-04-14T20:53:29.690Z,5.3
2019-04-14T20:56:29.759Z,5.3
2019-04-14T20:59:29.809Z,5.3
2019-04-14T21:02:29.858Z,5.2
2019-04-14T21:05:29.649Z,5.2
2019-04-14T21:08:29.959Z,5.2
2019-04-14T21:11:29.945Z,5.2
2019-04-14T21:14:29.663Z,5.2
2019-04-14T21:17:29.718Z,5.2
2019-04-14T21:20:30.122Z,5.2
2019-04-14T21:23:29.820Z,5.2
2019-04-14T21:26:29.792Z,5.2
2019-04-14T21:29:29.653Z,5.2
2019-04-14T21:32:29.691Z,5.2
2019-04-14T21:35:29.618Z,5.2
2019-04-14T21:38:29.691Z,5.2
2019-04-14T21:41:29.714Z,5.2
2019-04-14T21:44:29.789Z,5.2
2019-04-14T21:47:29.874Z,5.2
2019-04-14T21:50:29.850Z,5.2
2019-04-14T21:53:29.709Z,5.2
2019-04-14T21:56:29.779Z,5.2
2019-04-14T21:59:29.847Z,5.2
2019-04-14T22:02:29.794Z,5.1
2019-04-14T22:05:29.720Z,5.1
2019-04-14T22:08:29.930Z,5.1
2019-04-14T22:11:29.572Z,5.1
2019-04-14T22:14:29.817Z,5.1
2019-04-14T22:17:29.820Z,5.1
2019-04-14T22:20:29.765Z,5.1
2019-04-14T22:23:29.923Z,5.1
2019-04-14T22:26:29.922Z,5.1
2019-04-14T22:29:29.822Z,5.1
2019-04-14T22:32:29.743Z,5.1
2019-04-14T22:35:29.740Z,5.1
2019-04-14T22:38:29.870Z,5.1
2019-04-14T22:41:29.692Z,5.1
2019-04-14T22:44:29.972Z,5.1
2019-04-14T22:47:30.067Z,5.1
2019-04-14T22:50:29.735Z,5.1
2019-04-14T22:53:29.863Z,5.1
2019-04-14T22:56:40.230Z,5.1
2019-04-14T22:59:29.804Z,5.1
2019-04-14T23:02:29.871Z,5
2019-04-14T23:05:29.796Z,5
2019-04-14T23:08:30.020Z,5
2019-04-14T23:11:29.628Z,5
2019-04-14T23:14:29.782Z,5
2019-04-14T23:17:30.046Z,5
2019-04-14T23:20:29.957Z,5
2019-04-14T23:23:29.879Z,5
2019-04-14T23:26:29.878Z,5
2019-04-14T23:29:29.671Z,5
2019-04-14T23:32:29.707Z,5
2019-04-14T23:35:29.759Z,5
2019-04-14T23:38:29.811Z,5
2019-04-14T23:41:29.614Z,5
2019-04-14T23:44:29.910Z,5
2019-04-14T23:47:29.676Z,5
2019-04-14T23:50:29.713Z,5
2019-04-14T23:53:29.565Z,5
2019-04-14T23:56:29.833Z,5
2019-04-14T23:59:29.962Z,5
